createdAt,value
2023-05-04T00:02:04.208Z,9.33
2023-05-04T00:04:30.738Z,9.33
2023-05-04T00:06:57.304Z,9.29
2023-05-04T00:09:23.884Z,9.24
2023-05-04T00:11:50.535Z,9.24
2023-05-04T00:14:17.125Z,9.20
2023-05-04T00:16:44.338Z,9.11
2023-05-04T00:19:11.300Z,9.00
2023-05-04T00:21:38.053Z,8.88
2023-05-04T00:24:04.899Z,8.77
2023-05-04T00:26:31.414Z,8.69
2023-05-04T00:28:57.938Z,8.60
2023-05-04T00:31:24.501Z,8.55
2023-05-04T00:33:51.448Z,8.52
2023-05-04T00:36:17.978Z,8.43
2023-05-04T00:38:49.241Z,8.23
2023-05-04T00:41:16.895Z,8.13
2023-05-04T00:43:43.724Z,8.01
2023-05-04T00:46:13.456Z,7.88
2023-05-04T00:48:42.004Z,7.75
2023-05-04T00:51:11.942Z,7.65
2023-05-04T00:53:39.325Z,7.56
2023-05-04T00:56:07.722Z,7.49
2023-05-04T00:58:35.234Z,7.48
2023-05-04T01:01:03.530Z,7.47
2023-05-04T01:03:31.447Z,7.45
2023-05-04T01:06:29.927Z,7.44
2023-05-04T01:09:04.887Z,7.43
2023-05-04T01:11:37.244Z,7.40
2023-05-04T01:14:05.624Z,7.39
2023-05-04T01:16:32.411Z,7.33
2023-05-04T01:18:59.117Z,7.28
2023-05-04T01:21:29.025Z,7.26
2023-05-04T01:23:56.506Z,7.26
2023-05-04T01:26:29.929Z,7.32
2023-05-04T01:29:06.223Z,7.35
2023-05-04T01:31:35.526Z,7.35
2023-05-04T01:34:03.103Z,7.44
2023-05-04T01:36:30.580Z,7.48
2023-05-04T01:38:58.523Z,7.54
2023-05-04T01:41:25.805Z,7.61
2023-05-04T01:43:54.152Z,7.73
2023-05-04T01:46:20.784Z,7.78
2023-05-04T01:48:47.639Z,7.78
2023-05-04T01:51:14.276Z,7.84
2023-05-04T01:53:40.934Z,7.86
2023-05-04T01:56:07.901Z,7.85
2023-05-04T01:58:34.489Z,7.88
2023-05-04T02:01:01.516Z,7.82
2023-05-04T02:03:28.328Z,7.78
2023-05-04T02:05:55.027Z,7.71
2023-05-04T02:08:21.675Z,7.67
2023-05-04T02:10:48.426Z,7.67
2023-05-04T02:13:15.032Z,7.68
2023-05-04T02:15:41.658Z,7.68
2023-05-04T02:18:08.441Z,7.69
2023-05-04T02:20:35.176Z,7.69
2023-05-04T02:23:01.887Z,7.65
2023-05-04T02:25:28.441Z,7.65
2023-05-04T02:27:55.088Z,7.62
2023-05-04T02:30:21.620Z,7.56
2023-05-04T02:32:48.597Z,7.55
2023-05-04T02:35:15.154Z,7.49
2023-05-04T02:37:41.855Z,7.40
2023-05-04T02:40:09.150Z,7.36
2023-05-04T02:42:35.846Z,7.33
2023-05-04T02:45:02.421Z,7.22
2023-05-04T02:47:29.113Z,7.17
2023-05-04T02:49:55.698Z,7.20
2023-05-04T02:52:22.254Z,7.21
2023-05-04T02:54:49.025Z,7.19
2023-05-04T02:57:16.230Z,7.21
2023-05-04T02:59:42.752Z,7.27
2023-05-04T03:02:09.381Z,7.30
2023-05-04T03:04:36.082Z,7.32
2023-05-04T03:07:02.870Z,7.32
2023-05-04T03:09:29.360Z,7.31
2023-05-04T03:11:55.896Z,7.31
2023-05-04T03:14:22.604Z,7.33
2023-05-04T03:16:49.250Z,7.31
2023-05-04T03:19:19.031Z,7.30
2023-05-04T03:21:46.391Z,7.32
2023-05-04T03:24:13.371Z,7.31
2023-05-04T03:26:39.904Z,7.23
2023-05-04T03:29:06.433Z,7.21
2023-05-04T03:31:32.961Z,7.24
2023-05-04T03:33:59.510Z,7.22
2023-05-04T03:36:26.000Z,7.19
2023-05-04T03:38:52.493Z,7.08
2023-05-04T03:41:19.075Z,7.04
2023-05-04T03:43:45.672Z,6.98
2023-05-04T03:46:13.215Z,7.02
2023-05-04T03:48:40.386Z,7.03
2023-05-04T03:51:07.264Z,7.06
2023-05-04T03:53:37.028Z,7.10
2023-05-04T03:56:04.020Z,7.07
2023-05-04T03:58:31.067Z,7.05
2023-05-04T04:00:57.608Z,7.03
2023-05-04T04:03:24.341Z,7.08
2023-05-04T04:05:51.372Z,7.10
2023-05-04T04:08:18.061Z,7.05
2023-05-04T04:10:44.562Z,6.94
2023-05-04T04:13:11.301Z,6.94
2023-05-04T04:15:37.857Z,6.96
2023-05-04T04:18:04.436Z,6.94
2023-05-04T04:20:31.119Z,6.94
2023-05-04T04:22:57.639Z,6.94
2023-05-04T04:25:24.513Z,7.01
2023-05-04T04:27:51.503Z,6.90
2023-05-04T04:30:18.414Z,6.84
2023-05-04T04:32:45.840Z,6.81
2023-05-04T04:35:12.602Z,6.80
2023-05-04T04:37:40.825Z,6.67
2023-05-04T04:40:08.190Z,6.61
2023-05-04T04:42:34.851Z,6.63
2023-05-04T04:45:01.523Z,6.62
2023-05-04T04:47:28.033Z,6.60
2023-05-04T04:49:54.565Z,6.61
2023-05-04T04:52:21.524Z,6.70
2023-05-04T04:54:48.004Z,6.79
2023-05-04T04:57:14.725Z,6.85
2023-05-04T04:59:41.339Z,6.92
2023-05-04T05:02:08.884Z,6.99
2023-05-04T05:04:39.158Z,7.16
2023-05-04T05:07:08.400Z,7.31
2023-05-04T05:09:35.427Z,7.46
2023-05-04T05:12:02.053Z,7.54
2023-05-04T05:14:28.623Z,7.59
2023-05-04T05:16:55.318Z,7.61
2023-05-04T05:19:21.840Z,7.60
2023-05-04T05:21:49.374Z,7.63
2023-05-04T05:24:17.298Z,7.64
2023-05-04T05:26:43.882Z,7.71
2023-05-04T05:29:10.604Z,7.86
2023-05-04T05:31:37.066Z,7.93
2023-05-04T05:34:03.649Z,8.04
2023-05-04T05:36:30.365Z,8.18
2023-05-04T05:38:56.908Z,8.36
2023-05-04T05:41:23.410Z,8.57
2023-05-04T05:43:49.977Z,8.70
2023-05-04T05:46:16.642Z,8.99
2023-05-04T05:48:43.199Z,9.37
2023-05-04T05:51:09.885Z,9.72
2023-05-04T05:53:36.485Z,9.93
2023-05-04T05:56:03.059Z,10.13
2023-05-04T05:58:30.064Z,10.23
2023-05-04T06:00:56.599Z,10.36
2023-05-04T06:03:23.273Z,10.64
2023-05-04T06:05:49.930Z,10.77
2023-05-04T06:08:16.671Z,10.85
2023-05-04T06:10:43.255Z,11.08
2023-05-04T06:13:09.854Z,11.23
2023-05-04T06:15:36.658Z,11.28
2023-05-04T06:18:03.444Z,11.51
2023-05-04T06:20:30.161Z,11.24
2023-05-04T06:22:57.346Z,11.45
2023-05-04T06:25:24.049Z,11.84
2023-05-04T06:27:50.932Z,12.33
2023-05-04T06:30:17.877Z,12.72
2023-05-04T06:32:44.458Z,13.03
2023-05-04T06:35:11.928Z,12.84
2023-05-04T06:37:38.632Z,12.52
2023-05-04T06:40:06.205Z,12.71
2023-05-04T06:42:33.361Z,12.82
2023-05-04T06:45:00.169Z,12.84
2023-05-04T06:47:26.829Z,12.91
2023-05-04T06:49:53.595Z,12.81
2023-05-04T06:52:20.420Z,12.71
2023-05-04T06:54:47.100Z,12.67
2023-05-04T06:57:13.625Z,12.65
2023-05-04T06:59:40.144Z,12.51
2023-05-04T07:02:07.270Z,12.65
2023-05-04T07:04:33.874Z,12.96
2023-05-04T07:07:00.359Z,13.16
2023-05-04T07:09:26.943Z,13.12
2023-05-04T07:11:53.505Z,12.79
2023-05-04T07:14:20.142Z,12.65
2023-05-04T07:16:46.679Z,12.74
2023-05-04T07:19:13.323Z,12.71
2023-05-04T07:21:39.875Z,12.91
2023-05-04T07:24:07.423Z,12.97
2023-05-04T07:26:33.996Z,13.02
2023-05-04T07:29:00.481Z,13.39
2023-05-04T07:31:29.375Z,14.00
2023-05-04T07:33:56.900Z,14.18
2023-05-04T07:36:25.097Z,14.36
2023-05-04T07:38:51.693Z,14.81
2023-05-04T07:41:18.266Z,14.97
2023-05-04T07:43:44.818Z,15.41
2023-05-04T07:46:11.627Z,15.68
2023-05-04T07:48:38.409Z,15.91
2023-05-04T07:51:05.169Z,16.19
2023-05-04T07:53:32.301Z,16.13
2023-05-04T07:56:08.053Z,16.47
2023-05-04T07:58:34.585Z,16.70
2023-05-04T08:01:01.042Z,16.72
2023-05-04T08:03:27.650Z,16.59
2023-05-04T08:05:54.189Z,16.56
2023-05-04T08:08:21.830Z,17.13
2023-05-04T08:10:50.971Z,17.73
2023-05-04T08:13:17.525Z,18.00
2023-05-04T08:15:44.132Z,17.84
2023-05-04T08:18:10.899Z,17.95
2023-05-04T08:20:37.778Z,17.98
2023-05-04T08:23:05.053Z,18.35
2023-05-04T08:25:31.669Z,18.02
2023-05-04T08:27:58.308Z,18.05
2023-05-04T08:30:25.334Z,17.90
2023-05-04T08:32:53.090Z,18.12
2023-05-04T08:35:19.632Z,18.86
2023-05-04T08:37:47.681Z,19.06
2023-05-04T08:40:14.986Z,19.28
2023-05-04T08:42:44.285Z,19.73
2023-05-04T08:45:11.075Z,19.69
2023-05-04T08:47:38.116Z,19.55
2023-05-04T08:50:07.461Z,19.52
2023-05-04T08:52:35.505Z,19.99
2023-05-04T08:55:03.459Z,20.04
2023-05-04T08:57:30.554Z,19.42
2023-05-04T08:59:58.840Z,19.88
2023-05-04T09:02:27.941Z,19.72
2023-05-04T09:04:54.606Z,19.31
2023-05-04T09:07:22.218Z,19.15
2023-05-04T09:09:51.036Z,19.50
2023-05-04T09:12:19.258Z,19.31
2023-05-04T09:14:49.025Z,19.70
2023-05-04T09:17:17.996Z,20.68
2023-05-04T09:19:45.003Z,21.13
2023-05-04T09:22:18.410Z,20.61
2023-05-04T09:24:46.513Z,21.19
2023-05-04T09:27:14.423Z,21.38
2023-05-04T09:29:44.165Z,21.25
2023-05-04T09:32:15.218Z,21.29
2023-05-04T09:34:49.560Z,21.48
2023-05-04T09:37:16.278Z,21.23
2023-05-04T09:39:56.352Z,21.23
2023-05-04T09:42:24.414Z,21.34
2023-05-04T09:45:01.011Z,21.32
2023-05-04T09:47:34.762Z,21.89
2023-05-04T09:50:11.910Z,22.36
2023-05-04T09:52:40.244Z,22.21
2023-05-04T09:55:11.557Z,22.51
2023-05-04T09:57:39.409Z,22.83
2023-05-04T10:00:06.856Z,22.88
2023-05-04T10:02:33.860Z,22.61
2023-05-04T10:05:00.841Z,23.08
2023-05-04T10:07:31.339Z,22.44
2023-05-04T10:10:02.094Z,22.50
2023-05-04T10:12:28.617Z,22.87
2023-05-04T10:14:55.279Z,22.73
2023-05-04T10:17:38.264Z,23.15
2023-05-04T10:20:26.044Z,22.96
2023-05-04T10:23:01.805Z,22.72
2023-05-04T10:25:47.947Z,22.62
2023-05-04T10:28:23.730Z,23.07
2023-05-04T10:30:56.804Z,23.32
2023-05-04T10:33:23.480Z,23.62
2023-05-04T10:35:53.274Z,23.32
2023-05-04T10:38:34.184Z,23.35
2023-05-04T10:41:01.030Z,24.14
2023-05-04T10:43:29.227Z,24.25
2023-05-04T10:45:57.660Z,23.80
2023-05-04T10:48:35.386Z,24.18
2023-05-04T10:51:01.978Z,23.36
2023-05-04T10:53:33.099Z,23.00
2023-05-04T10:55:59.748Z,23.18
2023-05-04T10:58:29.664Z,22.74
2023-05-04T11:00:56.350Z,22.92
2023-05-04T11:03:25.092Z,22.78
2023-05-04T11:05:55.398Z,23.29
2023-05-04T11:08:24.343Z,23.97
2023-05-04T11:11:04.983Z,24.17
2023-05-04T11:13:34.078Z,23.98
2023-05-04T11:16:01.297Z,24.27
2023-05-04T11:18:34.225Z,24.29
2023-05-04T11:21:01.542Z,24.19
2023-05-04T11:23:28.358Z,24.14
2023-05-04T11:25:55.019Z,24.72
2023-05-04T11:28:34.811Z,24.89
2023-05-04T11:31:03.492Z,24.55
2023-05-04T11:33:30.530Z,24.22
2023-05-04T11:36:01.753Z,24.93
2023-05-04T11:38:28.549Z,24.89
2023-05-04T11:40:55.189Z,24.92
2023-05-04T11:43:22.663Z,24.84
2023-05-04T11:45:49.521Z,25.11
2023-05-04T11:48:19.036Z,25.25
2023-05-04T11:50:46.937Z,25.68
2023-05-04T11:53:14.036Z,26.07
2023-05-04T11:55:42.052Z,25.23
2023-05-04T11:58:10.733Z,25.44
2023-05-04T12:00:45.416Z,25.31
2023-05-04T12:03:15.211Z,24.82
2023-05-04T12:05:54.153Z,24.13
2023-05-04T12:08:24.260Z,24.02
2023-05-04T12:10:50.823Z,24.85
2023-05-04T12:13:17.706Z,25.02
2023-05-04T12:15:44.449Z,24.96
2023-05-04T12:18:29.364Z,24.95
2023-05-04T12:20:56.320Z,24.85
2023-05-04T12:23:22.817Z,24.95
2023-05-04T12:25:57.743Z,25.24
2023-05-04T12:28:26.936Z,25.72
2023-05-04T12:30:54.151Z,25.93
2023-05-04T12:33:20.640Z,25.10
2023-05-04T12:35:48.000Z,24.42
2023-05-04T12:38:15.093Z,24.30
2023-05-04T12:40:43.307Z,25.18
2023-05-04T12:43:10.361Z,25.41
2023-05-04T12:45:37.239Z,25.74
2023-05-04T12:48:04.017Z,25.73
2023-05-04T12:50:30.614Z,26.10
2023-05-04T12:52:57.270Z,26.27
2023-05-04T12:55:25.466Z,26.30
2023-05-04T12:57:52.453Z,26.18
2023-05-04T13:00:19.295Z,26.19
2023-05-04T13:02:45.896Z,26.05
2023-05-04T13:05:13.080Z,26.15
2023-05-04T13:07:39.623Z,26.14
2023-05-04T13:10:06.549Z,26.12
2023-05-04T13:12:33.168Z,26.19
2023-05-04T13:15:00.702Z,26.63
2023-05-04T13:17:29.662Z,26.53
2023-05-04T13:19:56.240Z,26.42
2023-05-04T13:22:22.986Z,26.57
2023-05-04T13:24:49.532Z,26.22
2023-05-04T13:27:16.166Z,25.65
2023-05-04T13:29:42.676Z,26.09
2023-05-04T13:32:10.342Z,26.15
2023-05-04T13:34:36.818Z,25.60
2023-05-04T13:37:04.252Z,24.86
2023-05-04T13:39:30.926Z,24.73
2023-05-04T13:41:57.471Z,24.62
2023-05-04T13:44:24.132Z,24.70
2023-05-04T13:46:50.725Z,24.94
2023-05-04T13:49:17.319Z,25.15
2023-05-04T13:51:43.885Z,25.36
2023-05-04T13:54:10.480Z,25.22
2023-05-04T13:56:38.843Z,24.40
2023-05-04T13:59:05.653Z,24.15
2023-05-04T14:01:32.702Z,24.24
2023-05-04T14:03:59.504Z,24.18
2023-05-04T14:06:26.160Z,23.91
2023-05-04T14:08:52.978Z,24.34
2023-05-04T14:11:20.424Z,23.88
2023-05-04T14:13:48.610Z,23.58
2023-05-04T14:16:15.160Z,23.71
2023-05-04T14:18:41.695Z,23.96
2023-05-04T14:21:09.450Z,24.42
2023-05-04T14:23:36.193Z,24.92
2023-05-04T14:26:03.108Z,25.42
2023-05-04T14:28:29.744Z,25.18
2023-05-04T14:30:57.841Z,24.93
2023-05-04T14:33:24.507Z,24.69
2023-05-04T14:35:50.994Z,24.60
2023-05-04T14:38:17.565Z,24.87
2023-05-04T14:40:44.075Z,24.89
2023-05-04T14:43:10.791Z,25.10
2023-05-04T14:45:39.885Z,25.20
2023-05-04T14:48:06.997Z,25.02
2023-05-04T14:50:33.644Z,24.79
2023-05-04T14:53:00.162Z,25.04
2023-05-04T14:55:26.770Z,25.14
2023-05-04T14:57:53.237Z,25.33
2023-05-04T15:00:20.415Z,25.27
2023-05-04T15:02:47.079Z,25.34
2023-05-04T15:05:13.985Z,24.91
2023-05-04T15:07:40.606Z,24.48
2023-05-04T15:10:09.231Z,24.37
2023-05-04T15:12:37.726Z,24.42
2023-05-04T15:15:04.843Z,24.68
2023-05-04T15:17:31.658Z,24.74
2023-05-04T15:19:58.253Z,24.84
2023-05-04T15:22:24.708Z,24.70
2023-05-04T15:24:52.288Z,24.62
2023-05-04T15:27:18.781Z,24.44
2023-05-04T15:29:45.347Z,24.38
2023-05-04T15:32:12.027Z,24.27
2023-05-04T15:34:38.758Z,23.99
2023-05-04T15:37:05.408Z,23.74
2023-05-04T15:39:31.933Z,23.73
2023-05-04T15:41:58.467Z,23.83
2023-05-04T15:44:27.785Z,23.77
2023-05-04T15:46:54.408Z,23.87
2023-05-04T15:49:21.191Z,23.59
2023-05-04T15:51:47.765Z,23.36
2023-05-04T15:54:14.350Z,23.13
2023-05-04T15:56:41.209Z,22.87
2023-05-04T15:59:07.795Z,22.68
2023-05-04T16:01:34.792Z,22.61
2023-05-04T16:04:01.633Z,22.74
2023-05-04T16:06:28.412Z,22.98
2023-05-04T16:08:55.132Z,23.07
2023-05-04T16:11:21.880Z,23.02
2023-05-04T16:13:48.578Z,22.88
2023-05-04T16:16:15.339Z,22.68
2023-05-04T16:18:42.030Z,22.60
2023-05-04T16:21:09.018Z,22.49
2023-05-04T16:23:36.538Z,22.41
2023-05-04T16:26:03.325Z,22.38
2023-05-04T16:28:29.828Z,22.37
2023-05-04T16:30:56.581Z,22.29
2023-05-04T16:33:27.775Z,22.28
2023-05-04T16:35:54.401Z,22.24
2023-05-04T16:38:21.114Z,22.25
2023-05-04T16:40:47.767Z,22.25
2023-05-04T16:43:15.804Z,22.19
2023-05-04T16:45:42.426Z,22.14
2023-05-04T16:48:09.106Z,22.15
2023-05-04T16:50:35.845Z,22.15
2023-05-04T16:53:02.350Z,22.14
2023-05-04T16:55:29.067Z,22.08
2023-05-04T16:57:57.187Z,22.00
2023-05-04T17:00:24.662Z,21.96
2023-05-04T17:02:52.714Z,21.94
2023-05-04T17:05:19.982Z,21.92
2023-05-04T17:07:46.741Z,21.85
2023-05-04T17:10:14.856Z,21.83
2023-05-04T17:12:42.289Z,21.80
2023-05-04T17:15:10.082Z,21.80
2023-05-04T17:17:36.784Z,21.81
2023-05-04T17:20:03.888Z,21.75
2023-05-04T17:22:30.604Z,21.70
2023-05-04T17:24:57.226Z,21.56
2023-05-04T17:27:23.863Z,21.44
2023-05-04T17:29:51.908Z,21.34
2023-05-04T17:32:18.682Z,21.29
2023-05-04T17:34:45.399Z,21.22
2023-05-04T17:37:12.065Z,21.14
2023-05-04T17:39:38.708Z,21.02
2023-05-04T17:42:05.336Z,20.95
2023-05-04T17:44:32.884Z,20.95
2023-05-04T17:47:00.254Z,20.96
2023-05-04T17:49:27.144Z,20.90
2023-05-04T17:51:54.208Z,20.78
2023-05-04T17:54:20.769Z,20.73
2023-05-04T17:56:47.628Z,20.60
2023-05-04T17:59:14.203Z,20.48
2023-05-04T18:01:41.155Z,20.36
2023-05-04T18:04:07.684Z,20.19
2023-05-04T18:06:34.271Z,20.12
2023-05-04T18:09:01.297Z,20.09
2023-05-04T18:11:28.072Z,20.05
2023-05-04T18:13:56.632Z,20.11
2023-05-04T18:16:24.509Z,20.14
2023-05-04T18:18:51.882Z,20.25
2023-05-04T18:21:18.754Z,20.31
2023-05-04T18:23:45.794Z,20.29
2023-05-04T18:26:20.502Z,20.42
2023-05-04T18:28:47.226Z,20.44
2023-05-04T18:31:13.968Z,20.40
2023-05-04T18:33:40.575Z,20.34
2023-05-04T18:36:07.112Z,20.21
2023-05-04T18:38:34.964Z,20.07
2023-05-04T18:41:02.032Z,19.94
2023-05-04T18:43:28.662Z,19.83
2023-05-04T18:45:55.398Z,19.69
2023-05-04T18:48:22.724Z,19.63
2023-05-04T18:50:59.273Z,19.54
2023-05-04T18:53:29.233Z,19.43
2023-05-04T18:56:06.103Z,19.37
2023-05-04T18:58:32.876Z,19.35
2023-05-04T19:00:59.813Z,19.32
2023-05-04T19:03:26.504Z,19.26
2023-05-04T19:05:53.232Z,19.20
2023-05-04T19:08:20.192Z,19.08
2023-05-04T19:10:47.292Z,18.96
2023-05-04T19:13:15.888Z,18.92
2023-05-04T19:15:43.232Z,18.86
2023-05-04T19:18:10.215Z,18.82
2023-05-04T19:20:37.698Z,18.83
2023-05-04T19:23:04.348Z,18.80
2023-05-04T19:25:35.227Z,18.74
2023-05-04T19:28:08.590Z,18.61
2023-05-04T19:30:39.198Z,18.47
2023-05-04T19:33:06.780Z,18.36
2023-05-04T19:35:33.664Z,18.29
2023-05-04T19:38:01.781Z,18.21
2023-05-04T19:40:28.565Z,18.17
2023-05-04T19:42:55.261Z,18.17
2023-05-04T19:45:21.902Z,18.16
2023-05-04T19:47:50.349Z,18.15
2023-05-04T19:50:17.032Z,18.22
2023-05-04T19:52:43.890Z,18.31
2023-05-04T19:55:10.969Z,18.28
2023-05-04T19:57:37.559Z,18.19
2023-05-04T20:00:04.857Z,18.08
2023-05-04T20:04:59.154Z,17.91
2023-05-04T20:07:25.769Z,17.87
2023-05-04T20:09:52.497Z,17.79
2023-05-04T20:12:18.980Z,17.73
2023-05-04T20:14:45.541Z,17.68
2023-05-04T20:17:12.092Z,17.64
2023-05-04T20:19:40.682Z,17.59
2023-05-04T20:22:07.325Z,17.47
2023-05-04T20:24:33.846Z,17.34
2023-05-04T20:27:00.430Z,17.22
2023-05-04T20:29:26.928Z,17.11
2023-05-04T20:31:53.537Z,17.01
2023-05-04T20:34:20.187Z,16.95
2023-05-04T20:36:47.039Z,16.92
2023-05-04T20:39:13.798Z,16.85
2023-05-04T20:41:41.299Z,16.79
2023-05-04T20:44:08.060Z,16.77
2023-05-04T20:46:34.631Z,16.73
2023-05-04T20:49:03.062Z,16.70
2023-05-04T20:51:29.915Z,16.66
2023-05-04T20:53:56.628Z,16.56
2023-05-04T20:56:23.230Z,16.41
2023-05-04T20:58:49.952Z,16.18
2023-05-04T21:01:16.485Z,15.95
2023-05-04T21:03:43.143Z,15.68
2023-05-04T21:06:09.969Z,15.40
2023-05-04T21:08:36.734Z,15.18
2023-05-04T21:11:03.251Z,15.06
2023-05-04T21:13:30.085Z,14.94
2023-05-04T21:15:56.744Z,14.85
2023-05-04T21:18:23.259Z,14.80
2023-05-04T21:20:49.778Z,14.73
2023-05-04T21:23:16.714Z,14.79
2023-05-04T21:25:43.340Z,14.78
2023-05-04T21:28:09.891Z,14.80
2023-05-04T21:30:40.202Z,14.79
2023-05-04T21:33:06.746Z,14.83
2023-05-04T21:35:33.379Z,14.84
2023-05-04T21:38:00.111Z,14.87
2023-05-04T21:40:29.780Z,14.82
2023-05-04T21:42:56.609Z,14.82
2023-05-04T21:45:23.717Z,14.76
2023-05-04T21:47:50.375Z,14.72
2023-05-04T21:50:17.178Z,14.72
2023-05-04T21:52:43.875Z,14.73
2023-05-04T21:55:10.397Z,14.72
2023-05-04T21:57:37.921Z,14.74
2023-05-04T22:00:11.857Z,14.77
2023-05-04T22:02:39.333Z,14.79
2023-05-04T22:05:06.437Z,14.82
2023-05-04T22:07:34.754Z,14.81
2023-05-04T22:10:03.975Z,14.78
2023-05-04T22:12:30.790Z,14.78
2023-05-04T22:14:58.255Z,14.53
2023-05-04T22:17:24.937Z,14.40
2023-05-04T22:19:51.538Z,14.32
2023-05-04T22:22:18.213Z,13.90
2023-05-04T22:24:45.972Z,13.63
2023-05-04T22:27:12.632Z,13.29
2023-05-04T22:29:39.364Z,13.10
2023-05-04T22:32:05.927Z,13.02
2023-05-04T22:34:32.595Z,13.00
2023-05-04T22:36:59.431Z,12.98
2023-05-04T22:39:26.067Z,12.94
2023-05-04T22:41:53.111Z,12.98
2023-05-04T22:44:19.783Z,12.99
2023-05-04T22:46:49.562Z,13.02
2023-05-04T22:49:19.183Z,13.13
2023-05-04T22:51:46.274Z,13.21
2023-05-04T22:54:13.002Z,13.22
2023-05-04T22:56:40.268Z,13.29
2023-05-04T22:59:06.826Z,13.32
2023-05-04T23:01:34.525Z,13.34
2023-05-04T23:04:01.530Z,13.31
2023-05-04T23:06:28.827Z,13.27
2023-05-04T23:08:55.390Z,13.20
2023-05-04T23:11:22.301Z,13.19
2023-05-04T23:13:49.321Z,13.13
2023-05-04T23:16:16.082Z,13.10
2023-05-04T23:18:42.757Z,13.05
2023-05-04T23:21:09.422Z,12.98
2023-05-04T23:23:36.139Z,12.89
2023-05-04T23:26:02.660Z,12.73
2023-05-04T23:28:29.264Z,12.53
2023-05-04T23:30:56.080Z,12.42
2023-05-04T23:33:22.650Z,12.44
2023-05-04T23:35:49.221Z,12.37
2023-05-04T23:38:16.066Z,12.32
2023-05-04T23:40:42.703Z,12.35
2023-05-04T23:43:09.450Z,12.38
2023-05-04T23:45:36.129Z,12.35
2023-05-04T23:48:02.805Z,12.25
2023-05-04T23:50:29.444Z,12.22
2023-05-04T23:52:55.965Z,12.15
2023-05-04T23:55:22.633Z,12.10
2023-05-04T23:57:49.469Z,11.93
